createdAt,value
2022-11-05T00:05:20.837Z,11.07
2022-11-05T00:10:27.221Z,9.90
2022-11-05T00:15:48.528Z,15.70
2022-11-05T00:20:51.330Z,11.97
2022-11-05T00:26:05.986Z,12.70
2022-11-05T00:31:11.208Z,12.53
2022-11-05T00:36:14.121Z,14.73
2022-11-05T00:41:17.386Z,11.73
2022-11-05T00:46:20.340Z,14.20
2022-11-05T00:51:23.437Z,13.87
2022-11-05T00:56:26.398Z,13.83
2022-11-05T01:01:29.779Z,13.70
2022-11-05T01:06:32.845Z,14.30
2022-11-05T01:11:37.433Z,12.83
2022-11-05T01:16:40.759Z,13.80
2022-11-05T01:21:43.988Z,13.17
2022-11-05T01:26:47.566Z,13.40
2022-11-05T01:31:50.620Z,14.23
2022-11-05T01:36:53.579Z,13.20
2022-11-05T01:41:56.686Z,15.00
2022-11-05T01:46:59.755Z,13.53
2022-11-05T01:52:04.117Z,14.00
2022-11-05T01:57:09.489Z,12.90
2022-11-05T02:02:12.530Z,14.07
2022-11-05T02:07:15.865Z,12.80
2022-11-05T02:12:19.125Z,13.37
2022-11-05T02:17:29.764Z,11.40
2022-11-05T02:22:54.477Z,12.53
2022-11-05T02:28:48.720Z,11.80
2022-11-05T02:34:09.729Z,15.70
2022-11-05T02:39:25.630Z,11.07
2022-11-05T02:44:57.472Z,11.00
2022-11-05T02:50:25.489Z,11.37
2022-11-05T02:55:37.188Z,10.67
2022-11-05T03:00:54.248Z,13.37
2022-11-05T03:06:35.036Z,10.77
2022-11-05T03:11:51.559Z,14.50
2022-11-05T03:17:02.691Z,14.50
2022-11-05T03:22:10.271Z,12.57
2022-11-05T03:27:16.108Z,16.40
2022-11-05T03:32:20.858Z,16.70
2022-11-05T03:37:25.424Z,15.93
2022-11-05T03:42:31.311Z,14.20
2022-11-05T03:47:37.990Z,13.10
2022-11-05T03:52:47.305Z,14.33
2022-11-05T03:57:51.795Z,13.77
2022-11-05T04:02:55.502Z,13.27
2022-11-05T04:08:16.929Z,11.80
2022-11-05T04:13:26.032Z,14.47
2022-11-05T04:18:29.001Z,16.63
2022-11-05T04:23:50.332Z,14.47
2022-11-05T04:29:11.949Z,14.13
2022-11-05T04:34:16.491Z,18.13
2022-11-05T04:39:20.031Z,16.87
2022-11-05T04:44:22.896Z,14.87
2022-11-05T04:49:25.935Z,19.60
2022-11-05T04:54:28.895Z,18.50
2022-11-05T04:59:32.119Z,16.03
2022-11-05T05:04:35.201Z,16.90
2022-11-05T05:09:38.340Z,15.70
2022-11-05T05:14:41.213Z,30.03
2022-11-05T05:20:03.208Z,31.80
2022-11-05T05:25:06.210Z,22.33
2022-11-05T05:30:09.914Z,19.87
2022-11-05T05:35:12.989Z,16.13
2022-11-05T05:40:15.837Z,15.07
2022-11-05T05:45:19.532Z,14.53
2022-11-05T05:50:22.395Z,26.00
2022-11-05T05:55:28.193Z,16.07
2022-11-05T06:00:30.985Z,17.87
2022-11-05T06:05:33.885Z,16.53
2022-11-05T06:10:36.714Z,18.03
2022-11-05T06:15:39.640Z,15.23
2022-11-05T06:20:42.746Z,16.13
2022-11-05T06:25:45.561Z,36.87
2022-11-05T06:30:52.139Z,14.40
2022-11-05T06:35:58.069Z,13.87
2022-11-05T06:41:05.753Z,12.40
2022-11-05T06:46:12.233Z,11.93
2022-11-05T06:51:15.638Z,10.53
2022-11-05T06:56:18.551Z,11.60
2022-11-05T07:01:21.524Z,11.50
2022-11-05T07:06:24.664Z,13.93
2022-11-05T07:11:27.625Z,26.50
2022-11-05T07:16:30.656Z,14.17
2022-11-05T07:21:33.812Z,15.03
2022-11-05T07:26:37.735Z,18.00
2022-11-05T07:31:40.929Z,15.50
2022-11-05T07:36:43.825Z,14.50
2022-11-05T07:41:46.760Z,13.87
2022-11-05T07:46:50.859Z,14.97
2022-11-05T07:51:53.927Z,17.77
2022-11-05T07:56:56.956Z,16.33
2022-11-05T08:02:00.085Z,19.07
2022-11-05T08:07:03.282Z,17.10
2022-11-05T08:12:06.740Z,21.87
2022-11-05T08:17:10.824Z,20.60
2022-11-05T08:22:15.462Z,18.73
2022-11-05T08:27:18.402Z,19.47
2022-11-05T08:32:21.318Z,21.37
2022-11-05T08:37:24.323Z,22.97
2022-11-05T08:42:27.098Z,24.33
2022-11-05T08:47:32.868Z,23.03
2022-11-05T08:52:35.781Z,20.00
2022-11-05T08:57:38.859Z,19.00
2022-11-05T09:02:41.932Z,23.63
2022-11-05T09:07:44.994Z,22.37
2022-11-05T09:12:48.436Z,20.43
2022-11-05T09:17:53.983Z,20.70
2022-11-05T09:22:57.116Z,20.23
2022-11-05T09:28:16.855Z,18.43
2022-11-05T09:33:23.021Z,18.87
2022-11-05T09:38:26.157Z,26.37
2022-11-05T09:43:34.821Z,18.20
2022-11-05T09:48:39.068Z,18.73
2022-11-05T09:53:45.389Z,22.83
2022-11-05T09:58:52.578Z,20.03
2022-11-05T10:03:57.774Z,20.37
2022-11-05T10:09:09.383Z,49.27
2022-11-05T10:14:39.552Z,14.40
2022-11-05T10:19:46.700Z,17.23
2022-11-05T10:24:50.857Z,52.50
2022-11-05T10:29:53.744Z,11.90
2022-11-05T10:34:59.647Z,14.00
2022-11-05T10:40:02.570Z,26.73
2022-11-05T10:45:25.021Z,9.00
2022-11-05T10:50:29.705Z,36.30
2022-11-05T10:55:35.595Z,13.97
2022-11-05T11:00:39.175Z,9.87
2022-11-05T11:05:42.203Z,13.30
2022-11-05T11:10:48.522Z,143.77
2022-11-05T11:15:51.784Z,13.60
2022-11-05T11:21:05.865Z,9.10
2022-11-05T11:26:11.195Z,10.03
2022-11-05T11:31:15.110Z,11.60
2022-11-05T11:36:20.248Z,14.03
2022-11-05T11:41:29.971Z,11.50
2022-11-05T11:46:34.420Z,6.60
2022-11-05T11:51:49.848Z,5.17
2022-11-05T11:56:53.132Z,7.37
2022-11-05T12:02:05.502Z,6.93
2022-11-05T12:07:08.689Z,14.30
2022-11-05T12:12:16.143Z,6.33
2022-11-05T12:17:28.056Z,11.27
2022-11-05T12:23:01.322Z,8.67
2022-11-05T12:28:14.267Z,6.70
2022-11-05T12:33:17.532Z,13.57
2022-11-05T12:39:10.352Z,8.27
2022-11-05T12:44:16.105Z,9.60
2022-11-05T12:49:31.096Z,10.03
2022-11-05T12:55:12.351Z,9.30
2022-11-05T13:00:24.077Z,12.27
2022-11-05T13:05:42.258Z,15.97
2022-11-05T13:10:49.512Z,14.10
2022-11-05T13:15:59.719Z,20.17
2022-11-05T13:21:05.163Z,24.47
2022-11-05T13:26:19.749Z,27.63
2022-11-05T13:31:36.656Z,16.53
2022-11-05T13:37:07.081Z,19.17
2022-11-05T13:42:37.430Z,19.33
2022-11-05T13:47:43.201Z,33.33
2022-11-05T13:53:12.353Z,24.50
2022-11-05T13:58:30.407Z,24.87
2022-11-05T14:03:33.687Z,22.70
2022-11-05T14:08:41.757Z,16.53
2022-11-05T14:13:45.510Z,15.20
2022-11-05T14:18:54.771Z,24.93
2022-11-05T14:24:17.213Z,14.00
2022-11-05T14:29:24.388Z,17.07
2022-11-05T14:35:01.124Z,23.30
2022-11-05T14:40:23.996Z,11.50
2022-11-05T14:45:36.876Z,13.53
2022-11-05T14:50:42.320Z,13.83
2022-11-05T14:55:46.083Z,14.60
2022-11-05T15:00:49.199Z,12.27
2022-11-05T15:05:53.459Z,13.93
2022-11-05T15:11:04.713Z,14.50
2022-11-05T15:16:07.771Z,10.93
2022-11-05T15:21:14.625Z,19.20
2022-11-05T15:26:38.295Z,19.77
2022-11-05T15:31:43.411Z,15.57
2022-11-05T15:36:57.903Z,20.00
2022-11-05T15:42:04.986Z,18.33
2022-11-05T15:47:24.039Z,25.10
2022-11-05T15:52:42.552Z,23.73
2022-11-05T15:57:50.614Z,18.70
2022-11-05T16:02:57.416Z,22.03
2022-11-05T16:08:02.133Z,30.03
2022-11-05T16:13:41.526Z,21.63
2022-11-05T16:18:45.183Z,20.93
2022-11-05T16:23:48.116Z,20.77
2022-11-05T16:28:51.426Z,22.80
2022-11-05T16:33:54.711Z,32.80
2022-11-05T16:38:58.311Z,37.43
2022-11-05T16:44:01.372Z,26.27
2022-11-05T16:49:04.251Z,24.70
2022-11-05T16:54:08.101Z,30.10
2022-11-05T16:59:12.773Z,46.73
2022-11-05T17:04:15.812Z,35.00
2022-11-05T17:09:18.757Z,32.97
2022-11-05T17:14:22.321Z,28.23
2022-11-05T17:19:25.472Z,28.20
2022-11-05T17:24:28.297Z,23.97
2022-11-05T17:29:31.274Z,25.07
2022-11-05T17:34:34.194Z,31.27
2022-11-05T17:39:37.163Z,170.37
2022-11-05T17:44:40.092Z,251.07
2022-11-05T17:49:43.252Z,201.40
2022-11-05T17:54:46.954Z,69.97
2022-11-05T17:59:49.912Z,24.03
2022-11-05T18:04:55.166Z,24.70
2022-11-05T18:09:58.011Z,29.63
2022-11-05T18:15:01.190Z,28.70
2022-11-05T18:20:11.681Z,23.23
2022-11-05T18:25:16.237Z,109.30
2022-11-05T18:30:19.020Z,35.27
2022-11-05T18:35:21.991Z,42.13
2022-11-05T18:40:24.849Z,83.40
2022-11-05T18:45:29.897Z,45.13
2022-11-05T18:50:33.027Z,65.40
2022-11-05T18:55:39.302Z,36.20
2022-11-05T19:00:42.368Z,27.97
2022-11-05T19:05:45.690Z,27.80
2022-11-05T19:10:51.620Z,24.87
2022-11-05T19:15:54.833Z,23.97
2022-11-05T19:20:58.192Z,20.93
2022-11-05T19:26:04.870Z,33.00
2022-11-05T19:31:08.554Z,55.97
2022-11-05T19:36:12.371Z,163.27
2022-11-05T19:41:15.625Z,52.63
2022-11-05T19:46:19.638Z,45.30
2022-11-05T19:51:25.221Z,32.57
2022-11-05T19:56:31.700Z,26.33
2022-11-05T20:01:35.484Z,56.67
2022-11-05T20:06:40.241Z,94.73
2022-11-05T20:11:45.187Z,31.27
2022-11-05T20:16:48.013Z,23.60
2022-11-05T20:21:51.641Z,25.43
2022-11-05T20:26:55.492Z,29.33
2022-11-05T20:31:58.877Z,33.27
2022-11-05T20:37:02.375Z,21.63
2022-11-05T20:42:05.215Z,22.03
2022-11-05T20:47:08.373Z,18.97
2022-11-05T20:52:12.374Z,17.00
2022-11-05T20:57:15.206Z,20.60
2022-11-05T21:02:18.250Z,21.37
2022-11-05T21:07:21.242Z,17.13
2022-11-05T21:12:24.335Z,23.17
2022-11-05T21:17:27.305Z,16.93
2022-11-05T21:22:30.833Z,13.60
2022-11-05T21:27:33.770Z,13.47
2022-11-05T21:32:38.009Z,16.77
2022-11-05T21:37:41.774Z,15.97
2022-11-05T21:42:44.696Z,14.77
2022-11-05T21:47:47.836Z,17.73
2022-11-05T21:53:09.169Z,14.67
2022-11-05T21:58:33.696Z,14.40
2022-11-05T22:03:36.976Z,13.80
2022-11-05T22:08:39.863Z,13.33
2022-11-05T22:13:42.797Z,16.10
2022-11-05T22:18:45.599Z,16.57
2022-11-05T22:23:48.486Z,16.40
2022-11-05T22:28:54.475Z,13.53
2022-11-05T22:33:57.422Z,14.83
2022-11-05T22:39:04.293Z,17.50
2022-11-05T22:44:07.353Z,15.50
2022-11-05T22:49:10.745Z,16.37
2022-11-05T22:54:13.641Z,16.10
2022-11-05T22:59:16.604Z,14.23
2022-11-05T23:04:19.697Z,10.83
2022-11-05T23:09:44.906Z,13.13
2022-11-05T23:14:48.453Z,10.80
2022-11-05T23:20:10.383Z,13.13
2022-11-05T23:25:23.701Z,14.73
2022-11-05T23:30:27.410Z,11.80
2022-11-05T23:35:49.192Z,14.93
2022-11-05T23:41:10.842Z,12.53
2022-11-05T23:46:32.556Z,11.63
2022-11-05T23:51:35.556Z,13.47
2022-11-05T23:56:38.521Z,11.53
